Time,TemperatureF,DewpointF,PressureIn,WindDirection,WindDirectionDegrees,WindSpeedMPH,WindSpeedGustMPH,Humidity,HourlyPrecipIn,Conditions,Clouds,dailyrainin,SoftwareType,DateUTC
2013-06-20 00:01:00,79.9,28.2,29.64,South,178,0.0,2.0,15,0.00,,,0.00,VWS V14.01,2013-06-20 07:01:00,
2013-06-20 00:06:00,78.2,26.8,29.64,South,178,1.0,2.0,15,0.00,,,0.00,VWS V14.01,2013-06-20 07:06:00,
2013-06-20 00:11:00,78.6,25.5,29.64,South,179,0.0,0.0,14,0.00,,,0.00,VWS V14.01,2013-06-20 07:11:00,
2013-06-20 00:16:00,77.5,27.8,29.64,South,178,2.0,2.0,16,0.00,,,0.00,VWS V14.01,2013-06-20 07:16:00,
2013-06-20 00:21:00,76.9,25.8,29.64,SW,227,0.0,0.0,15,0.00,,,0.00,VWS V14.01,2013-06-20 07:21:00,
2013-06-20 00:26:00,76.1,26.7,29.64,SW,227,0.0,0.0,16,0.00,,,0.00,VWS V14.01,2013-06-20 07:26:00,
2013-06-20 00:31:00,77.5,27.8,29.64,SW,227,0.0,0.0,16,0.00,,,0.00,VWS V14.01,2013-06-20 07:31:00,
2013-06-20 00:36:00,77.5,27.8,29.64,SW,227,0.0,0.0,16,0.00,,,0.00,VWS V14.01,2013-06-20 07:36:00,
2013-06-20 00:41:00,76.1,25.1,29.64,SW,227,0.0,0.0,15,0.00,,,0.00,VWS V14.01,2013-06-20 07:41:00,
2013-06-20 00:46:00,75.9,26.5,29.64,SW,227,0.0,0.0,16,0.00,,,0.00,VWS V14.01,2013-06-20 07:46:00,
2013-06-20 00:51:00,75.9,26.5,29.64,SW,227,0.0,0.0,16,0.00,,,0.00,VWS V14.01,2013-06-20 07:51:00,
2013-06-20 00:56:00,74.8,25.6,29.64,SW,227,2.0,2.0,16,0.00,,,0.00,VWS V14.01,2013-06-20 07:56:00,
2013-06-20 01:01:00,74.5,25.4,29.64,SW,227,0.0,1.0,16,0.00,,,0.00,VWS V14.01,2013-06-20 08:01:00,
2013-06-20 01:06:00,74.4,26.8,29.64,SW,227,0.0,0.0,17,0.00,,,0.00,VWS V14.01,2013-06-20 08:06:00,
2013-06-20 01:11:00,74.8,27.1,29.63,SW,227,1.0,2.0,17,0.00,,,0.00,VWS V14.01,2013-06-20 08:11:00,
2013-06-20 01:16:00,75.6,26.3,29.63,SW,227,0.0,0.0,16,0.00,,,0.00,VWS V14.01,2013-06-20 08:16:00,
2013-06-20 01:21:00,76.1,26.7,29.63,SW,227,0.0,0.0,16,0.00,,,0.00,VWS V14.01,2013-06-20 08:21:00,
2013-06-20 01:26:00,75.2,27.4,29.63,SW,227,0.0,0.0,17,0.00,,,0.00,VWS V14.01,2013-06-20 08:26:00,
2013-06-20 01:31:00,73.7,26.2,29.63,SW,227,1.0,1.0,17,0.00,,,0.00,VWS V14.01,2013-06-20 08:31:00,
2013-06-20 01:36:00,72.3,25.1,29.63,SW,227,0.0,1.0,17,0.00,,,0.00,VWS V14.01,2013-06-20 08:36:00,
2013-06-20 01:41:00,71.5,24.4,29.63,West,275,2.0,2.0,17,0.00,,,0.00,VWS V14.01,2013-06-20 08:41:00,
2013-06-20 01:46:00,71.4,25.7,29.63,West,275,2.0,2.0,18,0.00,,,0.00,VWS V14.01,2013-06-20 08:46:00,
2013-06-20 01:51:00,72.0,26.2,29.63,West,275,1.0,2.0,18,0.00,,,0.00,VWS V14.01,2013-06-20 08:51:00,
2013-06-20 01:56:00,72.8,25.5,29.63,West,275,0.0,1.0,17,0.00,,,0.00,VWS V14.01,2013-06-20 08:56:00,
2013-06-20 02:01:00,72.2,26.4,29.63,West,275,0.0,0.0,18,0.00,,,0.00,VWS V14.01,2013-06-20 09:01:00,
2013-06-20 02:06:00,71.3,25.6,29.63,West,275,0.0,0.0,18,0.00,,,0.00,VWS V14.01,2013-06-20 09:06:00,
2013-06-20 02:11:00,71.6,25.9,29.63,West,275,0.0,0.0,18,0.00,,,0.00,VWS V14.01,2013-06-20 09:11:00,
2013-06-20 02:16:00,70.1,24.7,29.63,West,277,1.0,1.0,18,0.00,,,0.00,VWS V14.01,2013-06-20 09:16:00,
2013-06-20 02:21:00,69.1,25.1,29.63,North,9,3.0,3.0,19,0.00,,,0.00,VWS V14.01,2013-06-20 09:21:00,
2013-06-20 02:26:00,68.6,24.7,29.63,NE,42,1.0,2.0,19,0.00,,,0.00,VWS V14.01,2013-06-20 09:26:00,
2013-06-20 02:31:00,68.5,25.9,29.63,NNE,12,3.0,3.0,20,0.00,,,0.00,VWS V14.01,2013-06-20 09:31:00,
2013-06-20 02:36:00,68.7,26.0,29.63,NNE,13,2.0,2.0,20,0.00,,,0.00,VWS V14.01,2013-06-20 09:36:00,
2013-06-20 02:41:00,68.8,26.1,29.63,NNE,13,0.0,0.0,20,0.00,,,0.00,VWS V14.01,2013-06-20 09:41:00,
2013-06-20 02:46:00,68.5,25.9,29.63,NNE,13,2.0,2.0,20,0.00,,,0.00,VWS V14.01,2013-06-20 09:46:00,
2013-06-20 02:51:00,68.9,27.4,29.63,NNE,13,2.0,3.0,21,0.00,,,0.00,VWS V14.01,2013-06-20 09:51:00,
2013-06-20 02:56:00,69.0,27.5,29.63,NNE,13,0.0,1.0,21,0.00,,,0.00,VWS V14.01,2013-06-20 09:56:00,
2013-06-20 03:01:00,68.8,27.3,29.63,NNE,13,0.0,0.0,21,0.00,,,0.00,VWS V14.01,2013-06-20 10:01:00,
2013-06-20 03:06:00,68.3,28.0,29.63,NNE,13,0.0,0.0,22,0.00,,,0.00,VWS V14.01,2013-06-20 10:06:00,
2013-06-20 03:11:00,68.2,27.9,29.63,NNE,13,1.0,1.0,22,0.00,,,0.00,VWS V14.01,2013-06-20 10:11:00,
2013-06-20 03:16:00,67.7,27.5,29.63,North,10,0.0,0.0,22,0.00,,,0.00,VWS V14.01,2013-06-20 10:16:00,
2013-06-20 03:21:00,67.1,28.1,29.63,North,360,1.0,2.0,23,0.00,,,0.00,VWS V14.01,2013-06-20 10:21:00,
2013-06-20 03:26:00,67.0,28.0,29.63,NNW,342,1.0,3.0,23,0.00,,,0.00,VWS V14.01,2013-06-20 10:26:00,
2013-06-20 03:31:00,66.9,27.9,29.63,NNW,343,1.0,3.0,23,0.00,,,0.00,VWS V14.01,2013-06-20 10:31:00,
2013-06-20 03:36:00,66.6,27.7,29.63,North,351,1.0,2.0,23,0.00,,,0.00,VWS V14.01,2013-06-20 10:36:00,
2013-06-20 03:41:00,66.7,28.8,29.63,NNW,337,3.0,3.0,24,0.00,,,0.00,VWS V14.01,2013-06-20 10:41:00,
2013-06-20 03:46:00,66.6,28.7,29.64,NNW,343,0.0,0.0,24,0.00,,,0.00,VWS V14.01,2013-06-20 10:46:00,
2013-06-20 03:51:00,66.2,28.4,29.64,NNW,343,3.0,3.0,24,0.00,,,0.00,VWS V14.01,2013-06-20 10:51:00,
2013-06-20 03:57:00,66.1,27.2,29.63,NNW,343,1.0,3.0,23,0.00,,,0.00,VWS V14.01,2013-06-20 10:57:00,
2013-06-20 04:02:00,66.9,27.9,29.63,NNW,343,0.0,1.0,23,0.00,,,0.00,VWS V14.01,2013-06-20 11:02:00,
2013-06-20 04:07:00,66.3,28.5,29.63,NNW,343,2.0,3.0,24,0.00,,,0.00,VWS V14.01,2013-06-20 11:07:00,
2013-06-20 04:12:00,66.5,29.6,29.64,NNW,343,2.0,2.0,25,0.00,,,0.00,VWS V14.01,2013-06-20 11:12:00,
2013-06-20 04:17:00,66.9,27.9,29.64,ENE,69,4.0,5.0,23,0.00,,,0.00,VWS V14.01,2013-06-20 11:17:00,
2013-06-20 04:22:00,65.9,30.1,29.64,East,79,2.0,3.0,26,0.00,,,0.00,VWS V14.01,2013-06-20 11:22:00,
2013-06-20 04:27:00,67.9,30.8,29.64,East,90,0.0,2.0,25,0.00,,,0.00,VWS V14.01,2013-06-20 11:27:00,
2013-06-20 04:32:00,70.2,31.8,29.64,ESE,112,0.0,1.0,24,0.00,,,0.00,VWS V14.01,2013-06-20 11:32:00,
2013-06-20 04:37:00,71.3,31.6,29.65,ESE,112,0.0,0.0,23,0.00,,,0.00,VWS V14.01,2013-06-20 11:37:00,
2013-06-20 04:42:00,70.8,31.2,29.65,ESE,112,0.0,0.0,23,0.00,,,0.00,VWS V14.01,2013-06-20 11:42:00,
2013-06-20 04:47:00,70.0,31.6,29.65,ESE,112,2.0,2.0,24,0.00,,,0.00,VWS V14.01,2013-06-20 11:47:00,
2013-06-20 04:52:00,69.0,30.7,29.65,ESE,112,0.0,1.0,24,0.00,,,0.00,VWS V14.01,2013-06-20 11:52:00,
2013-06-20 04:57:00,68.7,31.5,29.65,ESE,112,0.0,0.0,25,0.00,,,0.00,VWS V14.01,2013-06-20 11:57:00,
2013-06-20 05:02:00,69.4,32.1,29.65,ESE,112,0.0,0.0,25,0.00,,,0.00,VWS V14.01,2013-06-20 12:02:00,
2013-06-20 05:07:00,69.6,32.2,29.65,ESE,112,0.0,0.0,25,0.00,,,0.00,VWS V14.01,2013-06-20 12:07:00,
2013-06-20 05:12:00,69.8,31.4,29.65,SE,128,1.0,4.0,24,0.00,,,0.00,VWS V14.01,2013-06-20 12:12:00,
2013-06-20 05:17:00,72.3,30.2,29.66,SE,128,0.0,0.0,21,0.00,,,0.00,VWS V14.01,2013-06-20 12:17:00,
2013-06-20 05:22:00,72.6,29.3,29.65,SE,128,0.0,2.0,20,0.00,,,0.00,VWS V14.01,2013-06-20 12:22:00,
2013-06-20 05:27:00,71.2,30.4,29.65,SE,128,0.0,0.0,22,0.00,,,0.00,VWS V14.01,2013-06-20 12:27:00,
2013-06-20 05:32:00,69.7,29.2,29.66,SE,128,0.0,0.0,22,0.00,,,0.00,VWS V14.01,2013-06-20 12:32:00,
2013-06-20 05:37:00,69.7,30.3,29.66,SE,128,0.0,0.0,23,0.00,,,0.00,VWS V14.01,2013-06-20 12:37:00,
2013-06-20 05:42:00,70.1,29.5,29.66,SE,128,0.0,0.0,22,0.00,,,0.00,VWS V14.01,2013-06-20 12:42:00,
2013-06-20 05:47:00,70.6,29.9,29.66,SE,128,0.0,0.0,22,0.00,,,0.00,VWS V14.01,2013-06-20 12:47:00,
2013-06-20 05:52:00,70.7,28.9,29.66,SE,128,0.0,0.0,21,0.00,,,0.00,VWS V14.01,2013-06-20 12:52:00,
2013-06-20 05:57:00,71.5,29.5,29.66,SE,128,0.0,0.0,21,0.00,,,0.00,VWS V14.01,2013-06-20 12:57:00,
2013-06-20 06:02:00,71.7,29.7,29.66,SE,128,0.0,0.0,21,0.00,,,0.00,VWS V14.01,2013-06-20 13:02:00,
2013-06-20 06:07:00,72.4,29.1,29.66,SE,128,0.0,0.0,20,0.00,,,0.00,VWS V14.01,2013-06-20 13:07:00,
2013-06-20 06:12:00,72.4,30.3,29.67,SE,128,0.0,0.0,21,0.00,,,0.00,VWS V14.01,2013-06-20 13:12:00,
2013-06-20 06:17:00,72.6,30.5,29.67,SE,128,0.0,1.0,21,0.00,,,0.00,VWS V14.01,2013-06-20 13:17:00,
2013-06-20 06:22:00,73.1,30.9,29.67,South,180,0.0,1.0,21,0.00,,,0.00,VWS V14.01,2013-06-20 13:22:00,
2013-06-20 06:27:00,74.4,30.8,29.67,South,180,0.0,0.0,20,0.00,,,0.00,VWS V14.01,2013-06-20 13:27:00,
2013-06-20 06:32:00,75.3,30.2,29.67,WSW,252,0.0,2.0,19,0.00,,,0.00,VWS V14.01,2013-06-20 13:32:00,
2013-06-20 06:37:00,76.4,29.8,29.67,SW,218,1.0,6.0,18,0.00,,,0.00,VWS V14.01,2013-06-20 13:37:00,
2013-06-20 06:42:00,77.1,30.4,29.67,SW,220,0.0,6.0,18,0.00,,,0.00,VWS V14.01,2013-06-20 13:42:00,
2013-06-20 06:47:00,77.9,29.6,29.68,SW,224,4.0,9.0,17,0.00,,,0.00,VWS V14.01,2013-06-20 13:47:00,
2013-06-20 06:52:00,78.4,31.4,29.68,SW,222,2.0,5.0,18,0.00,,,0.00,VWS V14.01,2013-06-20 13:52:00,
2013-06-20 06:57:00,78.8,31.8,29.68,SW,222,8.0,8.0,18,0.00,,,0.00,VWS V14.01,2013-06-20 13:57:00,
2013-06-20 07:02:00,79.4,30.8,29.68,SSW,210,1.0,2.0,17,0.00,,,0.00,VWS V14.01,2013-06-20 14:02:00,
2013-06-20 07:07:00,80.0,31.3,29.69,SW,219,4.0,5.0,17,0.00,,,0.00,VWS V14.01,2013-06-20 14:07:00,
2013-06-20 07:12:00,80.5,30.2,29.69,South,185,4.0,8.0,16,0.00,,,0.00,VWS V14.01,2013-06-20 14:12:00,
2013-06-20 07:17:00,81.2,32.3,29.69,SW,234,7.0,8.0,17,0.00,,,0.00,VWS V14.01,2013-06-20 14:17:00,
2013-06-20 07:22:00,81.9,29.8,29.69,SSW,205,4.0,6.0,15,0.00,,,0.00,VWS V14.01,2013-06-20 14:22:00,
2013-06-20 07:27:00,82.4,30.2,29.69,SW,215,6.0,8.0,15,0.00,,,0.00,VWS V14.01,2013-06-20 14:27:00,
2013-06-20 07:32:00,82.7,28.7,29.69,SW,215,9.0,9.0,14,0.00,,,0.00,VWS V14.01,2013-06-20 14:32:00,
2013-06-20 07:37:00,82.9,30.6,29.70,SSW,211,9.0,9.0,15,0.00,,,0.00,VWS V14.01,2013-06-20 14:37:00,
2013-06-20 07:42:00,83.4,29.3,29.69,SW,233,9.0,10.0,14,0.00,,,0.00,VWS V14.01,2013-06-20 14:42:00,
2013-06-20 07:47:00,83.5,29.3,29.69,SW,236,6.0,11.0,14,0.00,,,0.00,VWS V14.01,2013-06-20 14:47:00,
2013-06-20 07:52:00,84.1,29.8,29.69,SW,217,5.0,7.0,14,0.00,,,0.00,VWS V14.01,2013-06-20 14:52:00,
2013-06-20 07:57:00,84.3,30.0,29.70,SSW,206,8.0,10.0,14,0.00,,,0.00,VWS V14.01,2013-06-20 14:57:00,
2013-06-20 08:02:00,84.6,30.2,29.70,SW,226,9.0,9.0,14,0.00,,,0.00,VWS V14.01,2013-06-20 15:02:00,
2013-06-20 08:07:00,85.1,26.8,29.70,SSW,200,6.0,9.0,12,0.00,,,0.00,VWS V14.01,2013-06-20 15:07:00,
2013-06-20 08:12:00,85.8,25.3,29.70,South,188,10.0,10.0,11,0.00,,,0.00,VWS V14.01,2013-06-20 15:12:00,
2013-06-20 08:17:00,85.6,25.1,29.70,SSW,207,6.0,10.0,11,0.00,,,0.00,VWS V14.01,2013-06-20 15:17:00,
2013-06-20 08:22:00,85.9,23.1,29.70,SW,225,7.0,13.0,10,0.00,,,0.00,VWS V14.01,2013-06-20 15:22:00,
2013-06-20 08:27:00,85.8,25.3,29.70,SSW,194,7.0,11.0,11,0.00,,,0.00,VWS V14.01,2013-06-20 15:27:00,
2013-06-20 08:32:00,86.3,23.4,29.70,South,178,4.0,9.0,10,0.00,,,0.00,VWS V14.01,2013-06-20 15:32:00,
2013-06-20 08:37:00,86.8,21.3,29.70,SW,221,4.0,7.0,9,0.00,,,0.00,VWS V14.01,2013-06-20 15:37:00,
2013-06-20 08:42:00,87.4,21.7,29.70,South,184,4.0,8.0,9,0.00,,,0.00,VWS V14.01,2013-06-20 15:42:00,
2013-06-20 08:47:00,87.3,21.6,29.70,SSW,207,7.0,13.0,9,0.00,,,0.00,VWS V14.01,2013-06-20 15:47:00,
2013-06-20 08:52:00,87.6,24.4,29.70,SSW,197,7.0,8.0,10,0.00,,,0.00,VWS V14.01,2013-06-20 15:52:00,
2013-06-20 08:57:00,88.1,24.8,29.70,WSW,237,16.0,16.0,10,0.00,,,0.00,VWS V14.01,2013-06-20 15:57:00,
2013-06-20 09:02:00,88.4,25.0,29.70,SW,225,5.0,10.0,10,0.00,,,0.00,VWS V14.01,2013-06-20 16:02:00,
2013-06-20 09:07:00,88.6,19.8,29.70,SW,223,7.0,10.0,8,0.00,,,0.00,VWS V14.01,2013-06-20 16:07:00,
2013-06-20 09:12:00,89.0,20.1,29.70,SW,215,3.0,15.0,8,0.00,,,0.00,VWS V14.01,2013-06-20 16:12:00,
2013-06-20 09:17:00,89.3,23.1,29.70,SW,225,10.0,12.0,9,0.00,,,0.00,VWS V14.01,2013-06-20 16:17:00,
2013-06-20 09:22:00,89.6,20.6,29.70,SW,214,10.0,14.0,8,0.00,,,0.00,VWS V14.01,2013-06-20 16:22:00,
2013-06-20 09:27:00,89.7,17.5,29.70,SW,227,3.0,8.0,7,0.00,,,0.00,VWS V14.01,2013-06-20 16:27:00,
2013-06-20 09:32:00,90.2,17.9,29.70,SSW,196,9.0,12.0,7,0.00,,,0.00,VWS V14.01,2013-06-20 16:32:00,
2013-06-20 09:37:00,90.2,10.2,29.70,SSW,203,4.0,13.0,5,0.00,,,0.00,VWS V14.01,2013-06-20 16:37:00,
2013-06-20 09:42:00,90.3,14.4,29.70,SW,225,10.0,13.0,6,0.00,,,0.00,VWS V14.01,2013-06-20 16:42:00,
2013-06-20 09:47:00,91.2,10.9,29.70,SW,221,6.0,12.0,5,0.00,,,0.00,VWS V14.01,2013-06-20 16:47:00,
2013-06-20 09:52:00,91.9,11.4,29.70,WSW,246,6.0,12.0,5,0.00,,,0.00,VWS V14.01,2013-06-20 16:52:00,
2013-06-20 09:57:00,91.9,15.6,29.70,South,178,5.0,10.0,6,0.00,,,0.00,VWS V14.01,2013-06-20 16:57:00,
2013-06-20 10:02:00,91.8,15.5,29.70,SSW,202,10.0,14.0,6,0.00,,,0.00,VWS V14.01,2013-06-20 17:02:00,
2013-06-20 10:07:00,91.5,11.1,29.70,South,169,4.0,13.0,5,0.00,,,0.00,VWS V14.01,2013-06-20 17:07:00,
2013-06-20 10:12:00,91.5,15.3,29.70,SW,224,6.0,10.0,6,0.00,,,0.00,VWS V14.01,2013-06-20 17:12:00,
2013-06-20 10:17:00,92.0,11.5,29.70,SSW,205,6.0,10.0,5,0.00,,,0.00,VWS V14.01,2013-06-20 17:17:00,
2013-06-20 10:22:00,92.2,11.6,29.70,South,191,3.0,8.0,5,0.00,,,0.00,VWS V14.01,2013-06-20 17:22:00,
2013-06-20 10:27:00,92.7,12.0,29.70,SW,235,1.0,7.0,5,0.00,,,0.00,VWS V14.01,2013-06-20 17:27:00,
2013-06-20 10:32:00,93.0,7.2,29.70,WSW,240,3.0,9.0,4,0.00,,,0.00,VWS V14.01,2013-06-20 17:32:00,
2013-06-20 10:37:00,92.8,7.1,29.70,SW,227,5.0,10.0,4,0.00,,,0.00,VWS V14.01,2013-06-20 17:37:00,
2013-06-20 10:42:00,93.0,12.2,29.70,SW,216,7.0,11.0,5,0.00,,,0.00,VWS V14.01,2013-06-20 17:42:00,
2013-06-20 10:47:00,93.8,12.8,29.70,SSW,202,5.0,7.0,5,0.00,,,0.00,VWS V14.01,2013-06-20 17:47:00,
2013-06-20 10:52:00,94.1,8.0,29.70,SW,232,2.0,11.0,4,0.00,,,0.00,VWS V14.01,2013-06-20 17:52:00,
2013-06-20 10:57:00,93.8,7.8,29.70,South,186,3.0,7.0,4,0.00,,,0.00,VWS V14.01,2013-06-20 17:57:00,
2013-06-20 11:02:00,94.6,8.3,29.70,SW,221,5.0,6.0,4,0.00,,,0.00,VWS V14.01,2013-06-20 18:02:00,
2013-06-20 11:07:00,94.2,1.8,29.70,WSW,244,7.0,11.0,3,0.00,,,0.00,VWS V14.01,2013-06-20 18:07:00,
2013-06-20 11:12:00,94.4,1.9,29.70,SSE,153,6.0,9.0,3,0.00,,,0.00,VWS V14.01,2013-06-20 18:12:00,
2013-06-20 11:17:00,94.8,2.2,29.69,WSW,244,5.0,7.0,3,0.00,,,0.00,VWS V14.01,2013-06-20 18:17:00,
2013-06-20 11:22:00,95.7,2.8,29.69,SW,214,3.0,11.0,3,0.00,,,0.00,VWS V14.01,2013-06-20 18:22:00,
2013-06-20 11:27:00,95.2,8.7,29.69,SW,221,1.0,6.0,4,0.00,,,0.00,VWS V14.01,2013-06-20 18:27:00,
2013-06-20 11:32:00,95.7,9.1,29.69,SSW,206,6.0,12.0,4,0.00,,,0.00,VWS V14.01,2013-06-20 18:32:00,
2013-06-20 11:37:00,95.7,9.1,29.69,WNW,295,0.0,5.0,4,0.00,,,0.00,VWS V14.01,2013-06-20 18:37:00,
2013-06-20 11:42:00,96.1,9.3,29.69,South,177,4.0,8.0,4,0.00,,,0.00,VWS V14.01,2013-06-20 18:42:00,
2013-06-20 11:47:00,96.5,9.6,29.69,SSW,207,3.0,7.0,4,0.00,,,0.00,VWS V14.01,2013-06-20 18:47:00,
2013-06-20 11:52:00,96.9,9.9,29.69,SW,219,3.0,5.0,4,0.00,,,0.00,VWS V14.01,2013-06-20 18:52:00,
2013-06-20 11:57:00,97.8,10.5,29.69,SSW,213,6.0,8.0,4,0.00,,,0.00,VWS V14.01,2013-06-20 18:57:00,
2013-06-20 12:02:00,96.9,9.9,29.69,SSW,202,7.0,9.0,4,0.00,,,0.00,VWS V14.01,2013-06-20 19:02:00,
2013-06-20 12:07:00,97.7,10.4,29.69,South,191,5.0,10.0,4,0.00,,,0.00,VWS V14.01,2013-06-20 19:07:00,
2013-06-20 12:12:00,97.3,10.2,29.69,SE,146,5.0,8.0,4,0.00,,,0.00,VWS V14.01,2013-06-20 19:12:00,
2013-06-20 12:17:00,97.6,10.4,29.69,SSE,158,7.0,11.0,4,0.00,,,0.00,VWS V14.01,2013-06-20 19:17:00,
2013-06-20 12:22:00,98.1,10.7,29.69,SSW,205,4.0,6.0,4,0.00,,,0.00,VWS V14.01,2013-06-20 19:22:00,
2013-06-20 12:27:00,97.7,10.4,29.68,South,181,6.0,10.0,4,0.00,,,0.00,VWS V14.01,2013-06-20 19:27:00,
2013-06-20 12:32:00,97.4,10.2,29.68,SSW,208,0.0,3.0,4,0.00,,,0.00,VWS V14.01,2013-06-20 19:32:00,
2013-06-20 12:37:00,98.2,10.8,29.68,SW,215,7.0,12.0,4,0.00,,,0.00,VWS V14.01,2013-06-20 19:37:00,
2013-06-20 12:42:00,98.2,4.4,29.68,SSE,164,7.0,12.0,3,0.00,,,0.00,VWS V14.01,2013-06-20 19:42:00,
2013-06-20 12:47:00,97.7,10.4,29.68,ESE,113,9.0,9.0,4,0.00,,,0.00,VWS V14.01,2013-06-20 19:47:00,
2013-06-20 12:52:00,97.9,10.6,29.67,SSW,212,7.0,10.0,4,0.00,,,0.00,VWS V14.01,2013-06-20 19:52:00,
2013-06-20 12:57:00,97.8,10.5,29.67,West,260,1.0,4.0,4,0.00,,,0.00,VWS V14.01,2013-06-20 19:57:00,
2013-06-20 13:02:00,98.8,11.2,29.67,SW,219,6.0,9.0,4,0.00,,,0.00,VWS V14.01,2013-06-20 20:02:00,
2013-06-20 13:07:00,98.3,4.5,29.67,South,186,0.0,7.0,3,0.00,,,0.00,VWS V14.01,2013-06-20 20:07:00,
2013-06-20 13:12:00,97.9,10.6,29.67,South,186,4.0,8.0,4,0.00,,,0.00,VWS V14.01,2013-06-20 20:12:00,
2013-06-20 13:17:00,97.8,4.2,29.67,SSW,212,10.0,10.0,3,0.00,,,0.00,VWS V14.01,2013-06-20 20:17:00,
2013-06-20 13:22:00,99.1,5.0,29.66,SW,221,3.0,5.0,3,0.00,,,0.00,VWS V14.01,2013-06-20 20:22:00,
2013-06-20 13:27:00,100.1,5.7,29.66,SSE,152,7.0,12.0,3,0.00,,,0.00,VWS V14.01,2013-06-20 20:27:00,
2013-06-20 13:32:00,98.4,4.6,29.66,SW,216,1.0,4.0,3,0.00,,,0.00,VWS V14.01,2013-06-20 20:32:00,
2013-06-20 13:37:00,99.3,5.2,29.66,SSE,155,2.0,5.0,3,0.00,,,0.00,VWS V14.01,2013-06-20 20:37:00,
2013-06-20 13:42:00,100.1,-3.0,29.65,SE,131,1.0,8.0,2,0.00,,,0.00,VWS V14.01,2013-06-20 20:42:00,
2013-06-20 13:47:00,99.8,-3.2,29.65,South,190,3.0,10.0,2,0.00,,,0.00,VWS V14.01,2013-06-20 20:47:00,
2013-06-20 13:52:00,101.3,-2.2,29.65,SSW,192,10.0,14.0,2,0.00,,,0.00,VWS V14.01,2013-06-20 20:52:00,
2013-06-20 13:57:00,100.7,-2.6,29.65,SSW,192,4.0,8.0,2,0.00,,,0.00,VWS V14.01,2013-06-20 20:57:00,
2013-06-20 14:02:00,101.2,-2.3,29.64,SSW,203,9.0,9.0,2,0.00,,,0.00,VWS V14.01,2013-06-20 21:02:00,
2013-06-20 14:07:00,102.0,-1.8,29.64,SSW,192,11.0,11.0,2,0.00,,,0.00,VWS V14.01,2013-06-20 21:07:00,
2013-06-20 14:12:00,102.8,-1.3,29.64,SSW,202,8.0,13.0,2,0.00,,,0.00,VWS V14.01,2013-06-20 21:12:00,
2013-06-20 14:17:00,100.5,-2.7,29.64,South,190,5.0,14.0,2,0.00,,,0.00,VWS V14.01,2013-06-20 21:17:00,
2013-06-20 14:22:00,101.3,-2.2,29.64,SW,227,6.0,8.0,2,0.00,,,0.00,VWS V14.01,2013-06-20 21:22:00,
2013-06-20 14:27:00,102.1,-15.8,29.64,SSW,192,9.0,17.0,1,0.00,,,0.00,VWS V14.01,2013-06-20 21:27:00,
2013-06-20 14:32:00,101.6,-16.1,29.63,SW,220,7.0,13.0,1,0.00,,,0.00,VWS V14.01,2013-06-20 21:32:00,
2013-06-20 14:37:00,101.9,-1.9,29.64,SW,219,7.0,12.0,2,0.00,,,0.00,VWS V14.01,2013-06-20 21:37:00,
2013-06-20 14:42:00,101.5,-16.2,29.64,SW,217,9.0,17.0,1,0.00,,,0.00,VWS V14.01,2013-06-20 21:42:00,
2013-06-20 14:47:00,101.3,-2.2,29.63,SW,224,11.0,15.0,2,0.00,,,0.00,VWS V14.01,2013-06-20 21:47:00,
2013-06-20 14:52:00,101.4,-2.2,29.63,SSW,198,14.0,14.0,2,0.00,,,0.00,VWS V14.01,2013-06-20 21:52:00,
2013-06-20 14:57:00,100.9,-2.5,29.63,SSW,201,4.0,10.0,2,0.00,,,0.00,VWS V14.01,2013-06-20 21:57:00,
2013-06-20 15:02:00,101.2,6.4,29.63,WNW,296,5.0,7.0,3,0.00,,,0.00,VWS V14.01,2013-06-20 22:02:00,
2013-06-20 15:08:00,101.2,6.4,29.63,WSW,251,9.0,11.0,3,0.00,,,0.00,VWS V14.01,2013-06-20 22:08:00,
2013-06-20 15:13:00,101.1,6.3,29.62,WNW,297,10.0,10.0,3,0.00,,,0.00,VWS V14.01,2013-06-20 22:13:00,
2013-06-20 15:18:00,100.5,5.9,29.63,WNW,296,4.0,7.0,3,0.00,,,0.00,VWS V14.01,2013-06-20 22:18:00,
2013-06-20 15:23:00,101.1,6.3,29.63,WSW,237,2.0,9.0,3,0.00,,,0.00,VWS V14.01,2013-06-20 22:23:00,
2013-06-20 15:28:00,101.5,6.6,29.62,SW,227,5.0,8.0,3,0.00,,,0.00,VWS V14.01,2013-06-20 22:28:00,
2013-06-20 15:33:00,101.5,6.6,29.63,WSW,257,4.0,10.0,3,0.00,,,0.00,VWS V14.01,2013-06-20 22:33:00,
2013-06-20 15:38:00,101.1,6.3,29.62,SSE,166,7.0,7.0,3,0.00,,,0.00,VWS V14.01,2013-06-20 22:38:00,
2013-06-20 15:43:00,100.0,5.6,29.62,ESE,122,2.0,5.0,3,0.00,,,0.00,VWS V14.01,2013-06-20 22:43:00,
2013-06-20 15:48:00,101.2,6.4,29.62,WSW,254,5.0,11.0,3,0.00,,,0.00,VWS V14.01,2013-06-20 22:48:00,
2013-06-20 15:53:00,101.3,6.5,29.62,SW,219,4.0,9.0,3,0.00,,,0.00,VWS V14.01,2013-06-20 22:53:00,
2013-06-20 15:58:00,101.4,6.5,29.61,SSW,213,5.0,11.0,3,0.00,,,0.00,VWS V14.01,2013-06-20 22:58:00,
2013-06-20 16:03:00,100.9,6.2,29.61,WSW,246,7.0,9.0,3,0.00,,,0.00,VWS V14.01,2013-06-20 23:03:00,
2013-06-20 16:08:00,101.4,6.5,29.61,WNW,288,7.0,9.0,3,0.00,,,0.00,VWS V14.01,2013-06-20 23:08:00,
2013-06-20 16:13:00,101.4,6.5,29.61,SW,216,3.0,8.0,3,0.00,,,0.00,VWS V14.01,2013-06-20 23:13:00,
2013-06-20 16:18:00,100.9,6.2,29.61,SSW,212,1.0,9.0,3,0.00,,,0.00,VWS V14.01,2013-06-20 23:18:00,
2013-06-20 16:23:00,99.6,5.3,29.61,South,178,5.0,8.0,3,0.00,,,0.00,VWS V14.01,2013-06-20 23:23:00,
2013-06-20 16:28:00,100.3,-2.9,29.61,NNW,333,3.0,8.0,2,0.00,,,0.00,VWS V14.01,2013-06-20 23:28:00,
2013-06-20 16:33:00,100.3,5.8,29.61,WSW,240,4.0,9.0,3,0.00,,,0.00,VWS V14.01,2013-06-20 23:33:00,
2013-06-20 16:38:00,101.2,-2.3,29.61,NW,324,4.0,11.0,2,0.00,,,0.00,VWS V14.01,2013-06-20 23:38:00,
2013-06-20 16:43:00,101.2,-2.3,29.61,SW,219,8.0,9.0,2,0.00,,,0.00,VWS V14.01,2013-06-20 23:43:00,
2013-06-20 16:48:00,101.2,-2.3,29.60,SSW,203,9.0,13.0,2,0.00,,,0.00,VWS V14.01,2013-06-20 23:48:00,
2013-06-20 16:53:00,101.0,-2.4,29.60,SW,217,5.0,11.0,2,0.00,,,0.00,VWS V14.01,2013-06-20 23:53:00,
2013-06-20 16:58:00,100.9,-2.5,29.60,SSW,206,5.0,10.0,2,0.00,,,0.00,VWS V14.01,2013-06-20 23:58:00,
2013-06-20 17:03:00,100.5,-2.7,29.60,West,275,10.0,13.0,2,0.00,,,0.00,VWS V14.01,2013-06-21 00:03:00,
2013-06-20 17:08:00,100.4,-2.8,29.60,NW,306,3.0,6.0,2,0.00,,,0.00,VWS V14.01,2013-06-21 00:08:00,
2013-06-20 17:13:00,100.4,-2.8,29.60,West,277,5.0,6.0,2,0.00,,,0.00,VWS V14.01,2013-06-21 00:13:00,
2013-06-20 17:18:00,99.9,-3.1,29.60,SSW,207,6.0,9.0,2,0.00,,,0.00,VWS V14.01,2013-06-21 00:18:00,
2013-06-20 17:23:00,100.1,-3.0,29.60,WSW,243,5.0,16.0,2,0.00,,,0.00,VWS V14.01,2013-06-21 00:23:00,
2013-06-20 17:28:00,99.6,-3.3,29.60,West,279,8.0,8.0,2,0.00,,,0.00,VWS V14.01,2013-06-21 00:28:00,
2013-06-20 17:33:00,99.6,-3.3,29.60,SW,232,6.0,11.0,2,0.00,,,0.00,VWS V14.01,2013-06-21 00:33:00,
2013-06-20 17:38:00,99.3,-3.5,29.60,West,281,6.0,12.0,2,0.00,,,0.00,VWS V14.01,2013-06-21 00:38:00,
2013-06-20 17:43:00,99.2,5.1,29.60,SSW,198,10.0,14.0,3,0.00,,,0.00,VWS V14.01,2013-06-21 00:43:00,
2013-06-20 17:48:00,98.7,4.8,29.60,West,270,4.0,14.0,3,0.00,,,0.00,VWS V14.01,2013-06-21 00:48:00,
2013-06-20 17:53:00,98.6,4.7,29.60,SSW,204,8.0,8.0,3,0.00,,,0.00,VWS V14.01,2013-06-21 00:53:00,
2013-06-20 17:58:00,98.2,4.4,29.60,SW,217,6.0,9.0,3,0.00,,,0.00,VWS V14.01,2013-06-21 00:58:00,
2013-06-20 18:03:00,98.2,4.4,29.60,SSW,212,5.0,12.0,3,0.00,,,0.00,VWS V14.01,2013-06-21 01:03:00,
2013-06-20 18:08:00,97.8,4.2,29.60,SSW,205,10.0,12.0,3,0.00,,,0.00,VWS V14.01,2013-06-21 01:08:00,
2013-06-20 18:13:00,97.6,4.0,29.60,WNW,294,3.0,7.0,3,0.00,,,0.00,VWS V14.01,2013-06-21 01:13:00,
2013-06-20 18:18:00,97.4,3.9,29.60,West,281,6.0,10.0,3,0.00,,,0.00,VWS V14.01,2013-06-21 01:18:00,
2013-06-20 18:23:00,97.1,10.0,29.60,NW,318,6.0,6.0,4,0.00,,,0.00,VWS V14.01,2013-06-21 01:23:00,
2013-06-20 18:28:00,96.9,9.9,29.60,SSW,195,7.0,9.0,4,0.00,,,0.00,VWS V14.01,2013-06-21 01:28:00,
2013-06-20 18:33:00,96.7,9.8,29.60,WSW,249,3.0,6.0,4,0.00,,,0.00,VWS V14.01,2013-06-21 01:33:00,
2013-06-20 18:38:00,96.5,9.6,29.61,SW,219,7.0,7.0,4,0.00,,,0.00,VWS V14.01,2013-06-21 01:38:00,
2013-06-20 18:43:00,96.1,9.3,29.61,WSW,243,4.0,10.0,4,0.00,,,0.00,VWS V14.01,2013-06-21 01:43:00,
2013-06-20 18:48:00,95.8,9.1,29.61,WSW,240,5.0,10.0,4,0.00,,,0.00,VWS V14.01,2013-06-21 01:48:00,
2013-06-20 18:53:00,95.5,8.9,29.61,WNW,288,6.0,6.0,4,0.00,,,0.00,VWS V14.01,2013-06-21 01:53:00,
2013-06-20 18:58:00,95.2,8.7,29.61,WSW,257,3.0,7.0,4,0.00,,,0.00,VWS V14.01,2013-06-21 01:58:00,
2013-06-20 19:03:00,94.8,8.5,29.61,SSW,211,4.0,7.0,4,0.00,,,0.00,VWS V14.01,2013-06-21 02:03:00,
2013-06-20 19:08:00,94.4,8.2,29.61,WSW,239,8.0,11.0,4,0.00,,,0.00,VWS V14.01,2013-06-21 02:08:00,
2013-06-20 19:13:00,94.0,7.9,29.61,SSW,213,4.0,9.0,4,0.00,,,0.00,VWS V14.01,2013-06-21 02:13:00,
2013-06-20 19:18:00,93.5,7.6,29.61,WSW,237,7.0,7.0,4,0.00,,,0.00,VWS V14.01,2013-06-21 02:18:00,
2013-06-20 19:23:00,93.1,12.3,29.61,SSW,208,5.0,13.0,5,0.00,,,0.00,VWS V14.01,2013-06-21 02:23:00,
2013-06-20 19:28:00,92.8,12.1,29.62,WSW,250,5.0,11.0,5,0.00,,,0.00,VWS V14.01,2013-06-21 02:28:00,
2013-06-20 19:33:00,92.4,11.8,29.62,West,269,0.0,8.0,5,0.00,,,0.00,VWS V14.01,2013-06-21 02:33:00,
2013-06-20 19:38:00,92.0,11.5,29.62,WSW,256,7.0,7.0,5,0.00,,,0.00,VWS V14.01,2013-06-21 02:38:00,
2013-06-20 19:43:00,91.6,11.2,29.62,West,271,6.0,6.0,5,0.00,,,0.00,VWS V14.01,2013-06-21 02:43:00,
2013-06-20 19:48:00,91.4,11.1,29.62,South,189,2.0,8.0,5,0.00,,,0.00,VWS V14.01,2013-06-21 02:48:00,
2013-06-20 19:53:00,91.1,10.9,29.62,West,267,4.0,7.0,5,0.00,,,0.00,VWS V14.01,2013-06-21 02:53:00,
2013-06-20 19:58:00,90.6,14.6,29.62,West,259,1.0,7.0,6,0.00,,,0.00,VWS V14.01,2013-06-21 02:58:00,
2013-06-20 20:03:00,90.4,14.5,29.62,SSW,210,2.0,6.0,6,0.00,,,0.00,VWS V14.01,2013-06-21 03:03:00,
2013-06-20 20:08:00,90.2,14.4,29.62,West,266,1.0,8.0,6,0.00,,,0.00,VWS V14.01,2013-06-21 03:08:00,
2013-06-20 20:13:00,90.1,14.3,29.62,West,273,4.0,9.0,6,0.00,,,0.00,VWS V14.01,2013-06-21 03:13:00,
2013-06-20 20:18:00,90.0,17.8,29.62,WSW,254,3.0,6.0,7,0.00,,,0.00,VWS V14.01,2013-06-21 03:18:00,
2013-06-20 20:23:00,89.5,17.4,29.63,WSW,241,0.0,2.0,7,0.00,,,0.00,VWS V14.01,2013-06-21 03:23:00,
2013-06-20 20:28:00,89.2,23.1,29.63,SW,236,3.0,4.0,9,0.00,,,0.00,VWS V14.01,2013-06-21 03:28:00,
2013-06-20 20:33:00,89.0,25.4,29.63,West,266,2.0,8.0,10,0.00,,,0.00,VWS V14.01,2013-06-21 03:33:00,
2013-06-20 20:38:00,89.0,25.4,29.63,West,267,4.0,4.0,10,0.00,,,0.00,VWS V14.01,2013-06-21 03:38:00,
2013-06-20 20:43:00,88.9,25.4,29.64,WNW,283,0.0,4.0,10,0.00,,,0.00,VWS V14.01,2013-06-21 03:43:00,
2013-06-20 20:48:00,88.6,27.4,29.64,West,273,0.0,1.0,11,0.00,,,0.00,VWS V14.01,2013-06-21 03:48:00,
2013-06-20 20:53:00,88.2,27.1,29.64,West,279,0.0,2.0,11,0.00,,,0.00,VWS V14.01,2013-06-21 03:53:00,
2013-06-20 20:58:00,87.8,26.8,29.65,West,271,4.0,4.0,11,0.00,,,0.00,VWS V14.01,2013-06-21 03:58:00,
2013-06-20 21:01:00,87.9,26.9,29.65,SW,232,0.0,4.0,11,0.00,,,0.00,VWS V14.01,2013-06-21 04:01:00,
2013-06-20 21:06:00,87.7,28.9,29.65,West,261,0.0,4.0,12,0.00,,,0.00,VWS V14.01,2013-06-21 04:06:00,
2013-06-20 21:11:00,87.7,28.9,29.65,SW,214,5.0,9.0,12,0.00,,,0.00,VWS V14.01,2013-06-21 04:11:00,
2013-06-20 21:16:00,87.7,28.9,29.65,West,270,2.0,5.0,12,0.00,,,0.00,VWS V14.01,2013-06-21 04:16:00,
2013-06-20 21:21:00,87.5,26.6,29.66,WSW,246,0.0,6.0,11,0.00,,,0.00,VWS V14.01,2013-06-21 04:21:00,
2013-06-20 21:26:00,86.8,26.0,29.66,West,267,1.0,6.0,11,0.00,,,0.00,VWS V14.01,2013-06-21 04:26:00,
2013-06-20 21:31:00,86.9,26.1,29.66,SW,230,6.0,8.0,11,0.00,,,0.00,VWS V14.01,2013-06-21 04:31:00,
2013-06-20 21:36:00,86.4,23.5,29.66,SW,221,1.0,7.0,10,0.00,,,0.00,VWS V14.01,2013-06-21 04:36:00,
2013-06-20 21:41:00,85.9,23.1,29.66,West,265,0.0,5.0,10,0.00,,,0.00,VWS V14.01,2013-06-21 04:41:00,
2013-06-20 21:46:00,85.7,20.4,29.67,WSW,238,0.0,4.0,9,0.00,,,0.00,VWS V14.01,2013-06-21 04:46:00,
2013-06-20 21:51:00,85.4,20.2,29.67,SSW,193,1.0,4.0,9,0.00,,,0.00,VWS V14.01,2013-06-21 04:51:00,
2013-06-20 21:56:00,84.6,24.4,29.67,SSE,163,0.0,4.0,11,0.00,,,0.00,VWS V14.01,2013-06-21 04:56:00,
2013-06-20 22:01:00,84.1,24.0,29.67,SSE,157,0.0,4.0,11,0.00,,,0.00,VWS V14.01,2013-06-21 05:01:00,
2013-06-20 22:06:00,83.9,25.9,29.67,SSE,157,0.0,2.0,12,0.00,,,0.00,VWS V14.01,2013-06-21 05:06:00,
2013-06-20 22:11:00,83.8,25.8,29.68,SSE,157,0.0,2.0,12,0.00,,,0.00,VWS V14.01,2013-06-21 05:11:00,
2013-06-20 22:16:00,83.3,25.4,29.68,SSE,157,0.0,1.0,12,0.00,,,0.00,VWS V14.01,2013-06-21 05:16:00,
2013-06-20 22:21:00,82.5,24.8,29.68,SE,136,0.0,2.0,12,0.00,,,0.00,VWS V14.01,2013-06-21 05:21:00,
2013-06-20 22:26:00,81.2,23.8,29.68,SE,136,0.0,0.0,12,0.00,,,0.00,VWS V14.01,2013-06-21 05:26:00,
2013-06-20 22:31:00,80.8,23.5,29.68,SE,136,0.0,0.0,12,0.00,,,0.00,VWS V14.01,2013-06-21 05:31:00,
2013-06-20 22:36:00,80.9,23.6,29.68,SE,136,0.0,1.0,12,0.00,,,0.00,VWS V14.01,2013-06-21 05:36:00,
2013-06-20 22:41:00,80.8,23.5,29.68,SE,136,0.0,1.0,12,0.00,,,0.00,VWS V14.01,2013-06-21 05:41:00,
2013-06-20 22:46:00,79.0,22.1,29.68,SE,136,0.0,0.0,12,0.00,,,0.00,VWS V14.01,2013-06-21 05:46:00,
2013-06-20 22:51:00,78.8,23.9,29.68,SE,136,0.0,0.0,13,0.00,,,0.00,VWS V14.01,2013-06-21 05:51:00,
2013-06-20 22:56:00,78.3,23.5,29.68,SE,136,1.0,1.0,13,0.00,,,0.00,VWS V14.01,2013-06-21 05:56:00,
2013-06-20 23:01:00,77.6,22.9,29.68,SE,136,0.0,1.0,13,0.00,,,0.00,VWS V14.01,2013-06-21 06:01:00,
2013-06-20 23:06:00,76.9,24.1,29.68,SE,136,0.0,0.0,14,0.00,,,0.00,VWS V14.01,2013-06-21 06:06:00,
2013-06-20 23:11:00,76.6,23.9,29.69,SE,136,1.0,2.0,14,0.00,,,0.00,VWS V14.01,2013-06-21 06:11:00,
2013-06-20 23:16:00,76.4,23.7,29.68,SE,136,0.0,1.0,14,0.00,,,0.00,VWS V14.01,2013-06-21 06:16:00,
2013-06-20 23:21:00,76.5,23.8,29.68,SE,136,0.0,0.0,14,0.00,,,0.00,VWS V14.01,2013-06-21 06:21:00,
2013-06-20 23:26:00,76.6,23.9,29.68,SE,136,1.0,1.0,14,0.00,,,0.00,VWS V14.01,2013-06-21 06:26:00,
2013-06-20 23:31:00,76.9,22.4,29.69,SE,136,0.0,1.0,13,0.00,,,0.00,VWS V14.01,2013-06-21 06:31:00,
2013-06-20 23:36:00,75.7,23.2,29.69,SE,129,1.0,4.0,14,0.00,,,0.00,VWS V14.01,2013-06-21 06:36:00,
2013-06-20 23:41:00,75.3,22.9,29.69,SE,129,1.0,2.0,14,0.00,,,0.00,VWS V14.01,2013-06-21 06:41:00,
2013-06-20 23:46:00,74.8,22.5,29.69,SE,129,0.0,2.0,14,0.00,,,0.00,VWS V14.01,2013-06-21 06:46:00,
2013-06-20 23:51:00,74.6,22.3,29.69,SE,129,0.0,1.0,14,0.00,,,0.00,VWS V14.01,2013-06-21 06:51:00,
2013-06-20 23:56:00,74.7,22.4,29.69,SE,129,0.0,1.0,14,0.00,,,0.00,VWS V14.01,2013-06-21 06:56:00,